Time;durP1;ratioP1;P1;durP2;ratioP2;P2;SDS_P1;SDS_P2;PMS_P1;PMS_P2;Temp;Humidity;BMP_temperature;BMP_pressure;BME280_temperature;BME280_humidity;BME280_pressure;Samples;Min_cycle;Max_cycle;Signal;HPM_P1;HPM_P2
2022/04/03 00:02:28;;;;;;;15.80;7.57;;;;;;;;;;5086297;28;20097;-69
2022/04/03 00:04:56;;;;;;;14.90;7.25;;;;;;;;;;5084398;28;20131;-69
2022/04/03 00:07:25;;;;;;;24.27;8.55;;;;;;;;;;5088013;28;20071;-68
2022/04/03 00:09:53;;;;;;;13.45;7.10;;;;;;;;;;5085484;28;20159;-69
2022/04/03 00:12:22;;;;;;;15.02;8.00;;;;;;;;;;5080377;28;20131;-69
2022/04/03 00:14:51;;;;;;;13.15;6.85;;;;;;;;;;5084461;28;20044;-68
2022/04/03 00:17:21;;;;;;;13.50;7.72;;;;;;;;;;5088195;28;20048;-69
2022/04/03 00:19:49;;;;;;;13.82;7.38;;;;;;;;;;5084264;28;20134;-69
2022/04/03 00:22:18;;;;;;;15.85;7.72;;;;;;;;;;5083583;28;20167;-68
2022/04/03 00:24:46;;;;;;;12.15;7.03;;;;;;;;;;5084507;28;20043;-69
2022/04/03 00:27:15;;;;;;;15.18;8.13;;;;;;;;;;5084754;28;20300;-69
2022/04/03 00:29:43;;;;;;;15.23;8.45;;;;;;;;;;5082574;28;20139;-69
2022/04/03 00:32:25;;;;;;;16.25;8.85;;;;;;;;;;5088060;28;20571;-68
2022/04/03 00:34:53;;;;;;;17.08;7.93;;;;;;;;;;5086158;28;20151;-68
2022/04/03 00:37:21;;;;;;;16.15;6.82;;;;;;;;;;5087370;28;20139;-69
2022/04/03 00:39:49;;;;;;;14.40;8.50;;;;;;;;;;5084587;28;20127;-69
2022/04/03 00:42:18;;;;;;;15.95;7.15;;;;;;;;;;5088578;28;20040;-69
2022/04/03 00:44:47;;;;;;;16.13;7.50;;;;;;;;;;5089019;28;20666;-68
2022/04/03 00:47:16;;;;;;;12.00;7.78;;;;;;;;;;5091265;28;20418;-68
2022/04/03 00:49:46;;;;;;;19.58;8.40;;;;;;;;;;5085057;28;20075;-68
2022/04/03 00:52:14;;;;;;;15.55;8.00;;;;;;;;;;5089457;28;20036;-69
2022/04/03 00:54:44;;;;;;;16.92;8.52;;;;;;;;;;5088013;28;20044;-70
2022/04/03 00:57:12;;;;;;;13.52;7.55;;;;;;;;;;5087049;28;20067;-69
2022/04/03 00:59:41;;;;;;;15.57;7.97;;;;;;;;;;5089799;28;20074;-68
2022/04/03 01:02:10;;;;;;;15.45;9.02;;;;;;;;;;5088980;28;20079;-69
2022/04/03 01:04:38;;;;;;;16.15;8.45;;;;;;;;;;5087006;28;20044;-68
2022/04/03 01:07:08;;;;;;;13.98;8.07;;;;;;;;;;5090894;28;20144;-69
2022/04/03 01:09:37;;;;;;;14.68;7.38;;;;;;;;;;5082382;28;20058;-69
2022/04/03 01:12:24;;;;;;;18.27;9.23;;;;;;;;;;5085963;28;20186;-69
2022/04/03 01:15:15;;;;;;;14.77;8.45;;;;;;;;;;5089503;28;20048;-69
2022/04/03 01:17:43;;;;;;;16.02;8.57;;;;;;;;;;5088067;28;20036;-69
2022/04/03 01:23:46;;;;;;;15.60;8.70;;;;;;;;;;5084606;28;20035;-68
2022/04/03 01:26:17;;;;;;;18.77;8.15;;;;;;;;;;5090333;28;20430;-69
2022/04/03 01:28:45;;;;;;;16.55;7.80;;;;;;;;;;5088474;28;20068;-68
2022/04/03 01:31:13;;;;;;;16.38;8.52;;;;;;;;;;5089036;28;20127;-68
2022/04/03 01:33:41;;;;;;;17.23;8.35;;;;;;;;;;5090089;28;20130;-68
2022/04/03 01:36:10;;;;;;;14.70;8.13;;;;;;;;;;5082963;28;20139;-68
2022/04/03 01:38:38;;;;;;;17.98;8.82;;;;;;;;;;5084755;28;20072;-69
2022/04/03 01:41:06;;;;;;;19.48;9.27;;;;;;;;;;5093685;28;20139;-69
2022/04/03 01:43:36;;;;;;;14.70;7.60;;;;;;;;;;5087329;28;20436;-69
2022/04/03 01:46:07;;;;;;;14.93;8.00;;;;;;;;;;5078232;28;20048;-68
2022/04/03 01:48:35;;;;;;;15.95;8.52;;;;;;;;;;5087885;28;20043;-68
2022/04/03 01:51:07;;;;;;;15.48;7.82;;;;;;;;;;5087893;28;20068;-69
2022/04/03 01:53:35;;;;;;;16.75;8.70;;;;;;;;;;5088504;28;20431;-68
2022/04/03 01:56:07;;;;;;;15.93;8.20;;;;;;;;;;5086365;28;20135;-68
2022/04/03 01:58:37;;;;;;;15.05;8.20;;;;;;;;;;5088481;28;20175;-69
2022/04/03 02:01:05;;;;;;;16.92;9.13;;;;;;;;;;5090216;28;20482;-69
2022/04/03 02:03:34;;;;;;;16.30;8.68;;;;;;;;;;5086136;28;20071;-68
2022/04/03 02:06:05;;;;;;;15.85;8.65;;;;;;;;;;5090810;28;20572;-69
2022/04/03 02:08:34;;;;;;;17.42;8.88;;;;;;;;;;5086297;28;20115;-69
2022/04/03 02:11:04;;;;;;;16.13;8.93;;;;;;;;;;5084063;28;20132;-68
2022/04/03 02:13:32;;;;;;;17.88;8.77;;;;;;;;;;5081958;28;20067;-69
2022/04/03 02:16:05;;;;;;;18.02;8.25;;;;;;;;;;5088584;28;20036;-68
2022/04/03 02:18:33;;;;;;;16.40;8.82;;;;;;;;;;5087747;28;20051;-68
2022/04/03 02:21:01;;;;;;;20.63;10.10;;;;;;;;;;5090976;28;20399;-69
2022/04/03 02:23:32;;;;;;;19.00;10.05;;;;;;;;;;5088077;28;20040;-69
2022/04/03 02:26:00;;;;;;;20.15;9.27;;;;;;;;;;5091353;28;20048;-69
2022/04/03 02:28:31;;;;;;;18.70;9.73;;;;;;;;;;5085306;28;20127;-69
2022/04/03 02:30:59;;;;;;;20.77;9.45;;;;;;;;;;5087296;28;20079;-69
2022/04/03 02:33:29;;;;;;;20.70;10.13;;;;;;;;;;5088269;28;20136;-69
2022/04/03 02:35:57;;;;;;;21.58;9.82;;;;;;;;;;5082841;28;20397;-68
2022/04/03 02:38:25;;;;;;;19.67;9.98;;;;;;;;;;5084914;28;20131;-68
2022/04/03 02:40:54;;;;;;;16.90;9.20;;;;;;;;;;5064967;28;20082;-69
2022/04/03 02:43:22;;;;;;;20.42;10.48;;;;;;;;;;5063231;28;20080;-69
2022/04/03 02:45:51;;;;;;;18.80;9.43;;;;;;;;;;5054970;28;20679;-69
2022/04/03 02:48:20;;;;;;;17.88;9.32;;;;;;;;;;5067086;28;20086;-68
2022/04/03 02:50:50;;;;;;;21.48;9.70;;;;;;;;;;5066420;28;20040;-68
2022/04/03 02:53:19;;;;;;;15.98;8.25;;;;;;;;;;5061645;28;20471;-69
2022/04/03 02:55:47;;;;;;;20.65;10.30;;;;;;;;;;5065878;28;20075;-69
2022/04/03 02:58:15;;;;;;;24.95;10.73;;;;;;;;;;5063772;28;20558;-68
2022/04/03 03:00:45;;;;;;;20.52;9.88;;;;;;;;;;5065809;28;20132;-69
2022/04/03 03:03:14;;;;;;;20.10;9.10;;;;;;;;;;5063979;28;20429;-69
2022/04/03 03:05:42;;;;;;;24.10;10.18;;;;;;;;;;5062325;28;20048;-68
2022/04/03 03:08:12;;;;;;;21.40;9.98;;;;;;;;;;5056903;28;20134;-69
2022/04/03 03:10:40;;;;;;;16.92;8.73;;;;;;;;;;5060491;28;20076;-69
2022/04/03 03:13:08;;;;;;;19.88;9.48;;;;;;;;;;5061395;28;20051;-69
2022/04/03 03:15:37;;;;;;;17.33;9.05;;;;;;;;;;5062418;28;20045;-69
2022/04/03 03:18:05;;;;;;;20.67;9.82;;;;;;;;;;5068068;28;20076;-70
2022/04/03 03:20:34;;;;;;;16.75;8.82;;;;;;;;;;5056120;28;20127;-69
2022/04/03 03:23:02;;;;;;;19.75;9.50;;;;;;;;;;5068808;28;20119;-69
2022/04/03 03:25:32;;;;;;;17.00;9.25;;;;;;;;;;5065622;28;20532;-68
2022/04/03 03:28:00;;;;;;;18.63;8.82;;;;;;;;;;5069051;28;20052;-69
2022/04/03 03:30:29;;;;;;;17.85;9.93;;;;;;;;;;5064084;28;20090;-69
2022/04/03 03:32:57;;;;;;;15.57;8.57;;;;;;;;;;5065135;28;20059;-69
2022/04/03 03:35:25;;;;;;;16.17;8.57;;;;;;;;;;5063501;28;20054;-69
2022/04/03 03:37:54;;;;;;;17.75;9.05;;;;;;;;;;5065257;28;20055;-69
2022/04/03 03:40:23;;;;;;;17.35;9.02;;;;;;;;;;5065716;28;20155;-69
2022/04/03 03:42:57;;;;;;;15.45;8.07;;;;;;;;;;5080012;28;20044;-69
2022/04/03 03:45:25;;;;;;;16.70;8.52;;;;;;;;;;5069212;28;20581;-69
2022/04/03 03:47:54;;;;;;;15.60;8.27;;;;;;;;;;5080645;28;20048;-69
2022/04/03 03:50:23;;;;;;;18.83;9.02;;;;;;;;;;5062124;28;20048;-69
2022/04/03 03:52:51;;;;;;;18.13;8.93;;;;;;;;;;5062573;28;20135;-69
2022/04/03 03:55:19;;;;;;;17.27;9.13;;;;;;;;;;5061488;28;20048;-69
2022/04/03 03:57:48;;;;;;;15.25;7.95;;;;;;;;;;5059822;28;20481;-69
2022/04/03 04:00:18;;;;;;;16.15;8.88;;;;;;;;;;5064375;28;20135;-69
2022/04/03 04:02:46;;;;;;;15.45;8.15;;;;;;;;;;5067955;28;20550;-69
2022/04/03 04:05:15;;;;;;;17.83;9.63;;;;;;;;;;5065802;28;20377;-69
2022/04/03 04:07:44;;;;;;;16.67;8.77;;;;;;;;;;5063936;28;20131;-69
2022/04/03 04:10:13;;;;;;;19.88;9.55;;;;;;;;;;5067052;28;20064;-69
2022/04/03 04:12:41;;;;;;;18.67;8.98;;;;;;;;;;5059498;28;20052;-69
2022/04/03 04:15:10;;;;;;;19.75;8.80;;;;;;;;;;5053056;28;20079;-69
2022/04/03 04:17:40;;;;;;;18.98;8.80;;;;;;;;;;5058566;28;20044;-69
2022/04/03 04:20:11;;;;;;;20.20;8.95;;;;;;;;;;5066335;28;20079;-68
2022/04/03 04:22:39;;;;;;;18.00;8.30;;;;;;;;;;5082895;28;20044;-69
2022/04/03 04:25:08;;;;;;;17.73;9.57;;;;;;;;;;5064382;28;20156;-69
2022/04/03 04:27:36;;;;;;;16.65;8.00;;;;;;;;;;5061345;28;20099;-69
2022/04/03 04:30:05;;;;;;;15.70;8.38;;;;;;;;;;5065779;28;20058;-68
2022/04/03 04:32:33;;;;;;;20.45;8.63;;;;;;;;;;5086352;28;20213;-69
2022/04/03 04:35:03;;;;;;;20.70;9.13;;;;;;;;;;5080919;28;20158;-69
2022/04/03 04:37:32;;;;;;;16.50;9.05;;;;;;;;;;5066833;28;20106;-69
2022/04/03 04:40:00;;;;;;;17.30;9.05;;;;;;;;;;5091113;28;20144;-69
2022/04/03 04:42:29;;;;;;;19.95;9.60;;;;;;;;;;5086024;28;20113;-69
2022/04/03 04:44:57;;;;;;;16.70;8.32;;;;;;;;;;5088726;28;21062;-69
2022/04/03 04:47:26;;;;;;;19.52;8.48;;;;;;;;;;5084583;28;20502;-69
2022/04/03 04:49:54;;;;;;;17.15;9.10;;;;;;;;;;5089048;28;20146;-69
2022/04/03 04:52:23;;;;;;;16.70;8.55;;;;;;;;;;5100377;28;20134;-69
2022/04/03 04:54:52;;;;;;;18.13;9.80;;;;;;;;;;5094407;28;20126;-69
2022/04/03 04:57:20;;;;;;;17.83;9.48;;;;;;;;;;5076249;28;20487;-70
2022/04/03 04:59:48;;;;;;;20.30;9.68;;;;;;;;;;5089090;28;20080;-69
2022/04/03 05:02:17;;;;;;;17.25;9.80;;;;;;;;;;5086606;28;20141;-70
2022/04/03 05:04:45;;;;;;;21.35;10.00;;;;;;;;;;5092328;28;20070;-68
2022/04/03 05:07:14;;;;;;;19.10;9.35;;;;;;;;;;5101158;28;20055;-68
2022/04/03 05:09:44;;;;;;;19.77;9.27;;;;;;;;;;5081783;28;20134;-69
2022/04/03 05:12:13;;;;;;;22.73;10.60;;;;;;;;;;5090394;28;20151;-69
2022/04/03 05:14:41;;;;;;;17.55;9.27;;;;;;;;;;5095067;28;20135;-69
2022/04/03 05:17:09;;;;;;;20.27;10.10;;;;;;;;;;5087745;28;20062;-70
2022/04/03 05:19:38;;;;;;;19.33;9.45;;;;;;;;;;5086555;28;20044;-69
2022/04/03 05:22:06;;;;;;;20.75;9.65;;;;;;;;;;5082514;28;20049;-69
2022/04/03 05:24:34;;;;;;;20.67;10.35;;;;;;;;;;5084254;28;20503;-69
2022/04/03 05:27:05;;;;;;;19.73;10.00;;;;;;;;;;5075337;28;20136;-69
2022/04/03 05:29:34;;;;;;;19.48;9.10;;;;;;;;;;5088163;28;20131;-69
2022/04/03 05:32:02;;;;;;;18.90;9.65;;;;;;;;;;5093673;28;20098;-68
2022/04/03 05:34:30;;;;;;;15.98;8.57;;;;;;;;;;5065723;28;20115;-68
2022/04/03 05:36:59;;;;;;;23.00;9.93;;;;;;;;;;5084677;28;20454;-69
2022/04/03 05:39:27;;;;;;;19.42;9.50;;;;;;;;;;5053715;28;20468;-69
2022/04/03 05:41:55;;;;;;;19.05;9.23;;;;;;;;;;5064139;28;20171;-69
2022/04/03 05:44:25;;;;;;;21.88;10.65;;;;;;;;;;5049980;28;20487;-68
2022/04/03 05:46:54;;;;;;;21.63;10.02;;;;;;;;;;5059848;28;20155;-68
2022/04/03 05:49:22;;;;;;;18.98;9.63;;;;;;;;;;5071243;28;20343;-69
2022/04/03 05:51:51;;;;;;;19.15;9.00;;;;;;;;;;5058713;28;20587;-69
2022/04/03 05:54:19;;;;;;;16.20;9.00;;;;;;;;;;5066997;28;20223;-68
2022/04/03 05:56:48;;;;;;;13.98;8.32;;;;;;;;;;5068523;28;20144;-69
2022/04/03 05:59:18;;;;;;;22.70;9.95;;;;;;;;;;5062884;28;20148;-68
2022/04/03 06:01:48;;;;;;;16.92;8.85;;;;;;;;;;5063449;28;20044;-69
2022/04/03 06:04:17;;;;;;;23.05;10.15;;;;;;;;;;5063899;28;20139;-68
2022/04/03 06:06:45;;;;;;;19.90;9.52;;;;;;;;;;5062790;28;20053;-71
2022/04/03 06:09:14;;;;;;;18.00;8.60;;;;;;;;;;5061009;28;20121;-69
2022/04/03 06:11:42;;;;;;;23.35;9.55;;;;;;;;;;5062707;28;20104;-69
2022/04/03 06:14:11;;;;;;;16.95;7.47;;;;;;;;;;5054209;28;20180;-68
2022/04/03 06:16:39;;;;;;;17.75;8.20;;;;;;;;;;5062138;28;20068;-68
2022/04/03 06:19:09;;;;;;;19.35;8.50;;;;;;;;;;5059633;28;20145;-68
2022/04/03 06:21:37;;;;;;;14.80;8.48;;;;;;;;;;5055584;28;20162;-69
2022/04/03 06:24:06;;;;;;;17.90;8.20;;;;;;;;;;5062784;28;20060;-69
2022/04/03 06:26:35;;;;;;;22.73;9.40;;;;;;;;;;5064555;28;20057;-68
2022/04/03 06:29:04;;;;;;;16.95;8.00;;;;;;;;;;5061272;28;20142;-68
2022/04/03 06:31:33;;;;;;;17.50;7.75;;;;;;;;;;5063844;28;20484;-69
2022/04/03 06:34:02;;;;;;;19.20;8.73;;;;;;;;;;5054118;28;20044;-70
2022/04/03 06:36:32;;;;;;;17.85;9.25;;;;;;;;;;5071795;28;20134;-69
2022/04/03 06:39:00;;;;;;;19.63;8.77;;;;;;;;;;5066963;28;20149;-69
2022/04/03 06:41:29;;;;;;;20.15;9.38;;;;;;;;;;5076657;28;20135;-68
2022/04/03 06:43:58;;;;;;;19.77;8.50;;;;;;;;;;5083710;28;20076;-69
2022/04/03 06:46:27;;;;;;;18.58;9.15;;;;;;;;;;5082070;28;20409;-70
2022/04/03 06:48:56;;;;;;;17.63;7.80;;;;;;;;;;5090973;28;20209;-69
2022/04/03 06:51:24;;;;;;;19.05;8.70;;;;;;;;;;5074288;28;20521;-70
2022/04/03 06:53:54;;;;;;;19.48;8.90;;;;;;;;;;5075111;28;20552;-70
2022/04/03 06:56:22;;;;;;;16.30;7.07;;;;;;;;;;5066559;28;20071;-69
2022/04/03 06:58:51;;;;;;;17.27;7.93;;;;;;;;;;5075884;28;20072;-69
2022/04/03 07:01:19;;;;;;;19.15;8.43;;;;;;;;;;5071831;28;20365;-69
2022/04/03 07:03:50;;;;;;;15.57;7.70;;;;;;;;;;5080818;28;20553;-70
2022/04/03 07:06:18;;;;;;;17.33;8.68;;;;;;;;;;5084591;28;20138;-69
2022/04/03 07:08:48;;;;;;;17.38;8.07;;;;;;;;;;5084559;28;20059;-69
2022/04/03 07:11:18;;;;;;;19.83;8.80;;;;;;;;;;5075849;28;20649;-70
2022/04/03 07:13:48;;;;;;;19.35;8.57;;;;;;;;;;5080300;28;20499;-69
2022/04/03 07:16:17;;;;;;;15.70;7.63;;;;;;;;;;5084149;28;20558;-69
2022/04/03 07:18:45;;;;;;;18.13;9.07;;;;;;;;;;5076727;28;20344;-68
2022/04/03 07:21:14;;;;;;;17.65;8.45;;;;;;;;;;5098132;28;20079;-68
2022/04/03 07:23:42;;;;;;;16.98;8.25;;;;;;;;;;5076452;28;20560;-68
2022/04/03 07:26:10;;;;;;;16.10;7.50;;;;;;;;;;5082005;28;20484;-68
2022/04/03 07:28:40;;;;;;;16.10;8.20;;;;;;;;;;5077350;28;20136;-67
2022/04/03 07:31:09;;;;;;;15.25;6.95;;;;;;;;;;5084109;28;20503;-67
2022/04/03 07:33:37;;;;;;;16.20;7.80;;;;;;;;;;5080451;28;20056;-67
2022/04/03 07:36:06;;;;;;;20.40;7.72;;;;;;;;;;5073522;28;20082;-67
2022/04/03 07:38:34;;;;;;;18.45;9.30;;;;;;;;;;5079344;28;20083;-67
2022/04/03 07:41:08;;;;;;;21.17;9.25;;;;;;;;;;5085133;28;20135;-67
2022/04/03 07:43:36;;;;;;;19.00;8.98;;;;;;;;;;5076772;28;20086;-67
2022/04/03 07:46:12;;;;;;;20.92;9.32;;;;;;;;;;5081493;28;20577;-67
2022/04/03 07:48:40;;;;;;;18.60;9.40;;;;;;;;;;5082223;28;20075;-67
2022/04/03 07:51:09;;;;;;;23.40;9.98;;;;;;;;;;5077335;28;20487;-67
2022/04/03 07:53:37;;;;;;;19.05;8.85;;;;;;;;;;5090998;28;20056;-67
2022/04/03 07:56:06;;;;;;;20.45;8.82;;;;;;;;;;5084287;28;20135;-67
2022/04/03 07:58:34;;;;;;;18.83;9.73;;;;;;;;;;5073090;28;20052;-67
2022/04/03 08:01:06;;;;;;;19.73;9.20;;;;;;;;;;5076487;28;20123;-67
2022/04/03 08:03:36;;;;;;;24.67;9.45;;;;;;;;;;5079083;28;20052;-67
2022/04/03 08:06:08;;;;;;;25.02;10.40;;;;;;;;;;5082679;28;20131;-67
2022/04/03 08:08:37;;;;;;;22.92;11.00;;;;;;;;;;5078332;28;20409;-67
2022/04/03 08:11:05;;;;;;;19.25;9.10;;;;;;;;;;5078266;28;20047;-67
2022/04/03 08:13:34;;;;;;;20.20;9.02;;;;;;;;;;5071826;28;20048;-68
2022/04/03 08:16:05;;;;;;;17.95;9.02;;;;;;;;;;5077738;28;20048;-67
2022/04/03 08:18:35;;;;;;;18.92;8.00;;;;;;;;;;5074630;28;20055;-68
2022/04/03 08:21:07;;;;;;;16.38;8.20;;;;;;;;;;5078317;28;20052;-68
2022/04/03 08:23:36;;;;;;;14.95;8.43;;;;;;;;;;5078803;28;20087;-68
2022/04/03 08:26:09;;;;;;;18.40;8.60;;;;;;;;;;5081823;28;20087;-68
2022/04/03 08:28:38;;;;;;;17.45;8.00;;;;;;;;;;5083397;28;20060;-68
2022/04/03 08:31:07;;;;;;;20.20;8.65;;;;;;;;;;5078570;28;20087;-68
2022/04/03 08:33:37;;;;;;;18.15;8.88;;;;;;;;;;5075254;28;20055;-68
2022/04/03 08:36:06;;;;;;;15.43;7.45;;;;;;;;;;5075724;28;20052;-68
2022/04/03 08:38:35;;;;;;;18.08;9.07;;;;;;;;;;5073277;28;21910;-68
2022/04/03 08:41:06;;;;;;;18.50;8.95;;;;;;;;;;5077922;28;20054;-70
2022/04/03 08:43:34;;;;;;;20.50;9.80;;;;;;;;;;5076883;28;20173;-70
2022/04/03 08:46:07;;;;;;;18.25;9.18;;;;;;;;;;5074517;28;20044;-69
2022/04/03 08:48:39;;;;;;;19.02;8.82;;;;;;;;;;5074717;28;20044;-70
2022/04/03 08:51:08;;;;;;;20.50;9.35;;;;;;;;;;5075457;28;20058;-69
2022/04/03 08:53:37;;;;;;;23.63;10.32;;;;;;;;;;5077896;28;20044;-70
2022/04/03 08:56:08;;;;;;;18.70;8.25;;;;;;;;;;5077493;28;20556;-69
2022/04/03 08:58:37;;;;;;;16.27;7.72;;;;;;;;;;5076889;28;20051;-69
2022/04/03 09:01:06;;;;;;;14.98;7.85;;;;;;;;;;5077842;28;20075;-69
2022/04/03 09:03:35;;;;;;;13.25;7.20;;;;;;;;;;5077246;28;20491;-69
2022/04/03 09:06:15;;;;;;;12.63;6.97;;;;;;;;;;5083159;28;20051;-69
2022/04/03 09:08:44;;;;;;;14.18;6.68;;;;;;;;;;5083574;28;20044;-69
2022/04/03 09:11:13;;;;;;;14.10;7.18;;;;;;;;;;5085666;28;20485;-69
2022/04/03 09:13:43;;;;;;;12.43;7.10;;;;;;;;;;5083534;28;20040;-69
2022/04/03 09:16:12;;;;;;;12.40;6.55;;;;;;;;;;5084495;28;20073;-69
2022/04/03 09:18:44;;;;;;;13.98;6.38;;;;;;;;;;5086033;28;20231;-69
2022/04/03 09:21:18;;;;;;;15.02;7.82;;;;;;;;;;5086239;28;20071;-69
2022/04/03 09:24:03;;;;;;;17.50;7.45;;;;;;;;;;5083516;28;20147;-69
2022/04/03 09:26:33;;;;;;;11.05;7.35;;;;;;;;;;5083280;28;20501;-69
2022/04/03 09:29:09;;;;;;;14.07;7.07;;;;;;;;;;5086250;28;20074;-69
2022/04/03 09:31:37;;;;;;;12.48;7.05;;;;;;;;;;5086200;28;20059;-69
2022/04/03 09:34:07;;;;;;;14.52;6.32;;;;;;;;;;5086078;28;20052;-69
2022/04/03 09:36:38;;;;;;;12.88;6.97;;;;;;;;;;5078965;28;20546;-69
2022/04/03 09:39:08;;;;;;;12.93;7.78;;;;;;;;;;5081009;28;20507;-69
2022/04/03 09:41:55;;;;;;;12.60;7.47;;;;;;;;;;5078495;28;20081;-69
2022/04/03 09:44:28;;;;;;;9.60;5.90;;;;;;;;;;5080458;28;20054;-69
2022/04/03 09:47:30;;;;;;;9.20;5.93;;;;;;;;;;5086138;28;20040;-69
2022/04/03 09:49:59;;;;;;;14.15;6.38;;;;;;;;;;5039176;28;20151;-69
2022/04/03 09:52:37;;;;;;;10.27;6.05;;;;;;;;;;5082707;28;20052;-69
2022/04/03 09:55:16;;;;;;;12.15;5.97;;;;;;;;;;5078900;28;20132;-69
2022/04/03 09:57:46;;;;;;;10.63;5.95;;;;;;;;;;5081914;28;20299;-69
2022/04/03 10:00:37;;;;;;;9.65;5.05;;;;;;;;;;5080589;28;20048;-69
2022/04/03 10:03:06;;;;;;;10.02;5.63;;;;;;;;;;5082013;28;20047;-69
2022/04/03 10:05:36;;;;;;;11.07;5.65;;;;;;;;;;5086687;28;20415;-69
2022/04/03 10:08:07;;;;;;;8.98;5.47;;;;;;;;;;5084938;28;20407;-69
2022/04/03 10:10:38;;;;;;;8.98;5.05;;;;;;;;;;5088130;28;20054;-69
2022/04/03 10:13:10;;;;;;;8.80;5.78;;;;;;;;;;5087657;28;20097;-69
2022/04/03 10:15:39;;;;;;;11.02;5.22;;;;;;;;;;5091300;28;20571;-68
2022/04/03 10:18:08;;;;;;;11.40;6.35;;;;;;;;;;5090398;28;20076;-69
2022/04/03 10:20:38;;;;;;;9.50;5.57;;;;;;;;;;5089718;28;20056;-69
2022/04/03 10:23:11;;;;;;;11.02;6.38;;;;;;;;;;5087965;28;20581;-68
2022/04/03 10:25:44;;;;;;;11.65;6.00;;;;;;;;;;5083923;28;20040;-69
2022/04/03 10:28:14;;;;;;;8.52;5.75;;;;;;;;;;5089108;28;20063;-69
2022/04/03 10:30:44;;;;;;;9.80;5.60;;;;;;;;;;5090774;28;20076;-69
2022/04/03 10:33:20;;;;;;;10.50;5.03;;;;;;;;;;5089896;28;20087;-69
2022/04/03 10:35:50;;;;;;;8.57;5.85;;;;;;;;;;5087176;28;20324;-69
2022/04/03 10:38:22;;;;;;;9.82;5.22;;;;;;;;;;5087086;28;20495;-69
2022/04/03 10:40:59;;;;;;;8.50;4.60;;;;;;;;;;5086721;28;20044;-69
2022/04/03 10:43:29;;;;;;;10.93;5.50;;;;;;;;;;5087236;28;20062;-68
2022/04/03 10:45:58;;;;;;;9.30;5.10;;;;;;;;;;5090354;28;20040;-68
2022/04/03 10:48:28;;;;;;;5.78;4.05;;;;;;;;;;5088239;28;20048;-68
2022/04/03 10:50:58;;;;;;;7.38;4.20;;;;;;;;;;5086301;28;20048;-69
2022/04/03 10:53:30;;;;;;;6.38;4.40;;;;;;;;;;5089555;28;20417;-69
2022/04/03 10:56:00;;;;;;;12.32;4.65;;;;;;;;;;5086144;28;20135;-69
2022/04/03 10:58:44;;;;;;;9.82;4.97;;;;;;;;;;5082740;28;20052;-70
2022/04/03 11:01:24;;;;;;;7.32;4.25;;;;;;;;;;5082245;28;20479;-69
2022/04/03 11:03:57;;;;;;;7.93;4.72;;;;;;;;;;5086732;28;20101;-69
2022/04/03 11:06:30;;;;;;;6.88;4.40;;;;;;;;;;5089273;28;20040;-70
2022/04/03 11:09:02;;;;;;;7.72;4.80;;;;;;;;;;5083437;28;20070;-69
2022/04/03 11:11:36;;;;;;;6.85;4.68;;;;;;;;;;5089187;28;20079;-70
2022/04/03 11:14:07;;;;;;;9.40;4.95;;;;;;;;;;5080599;28;20051;-69
2022/04/03 11:16:53;;;;;;;6.70;3.80;;;;;;;;;;5078114;28;20066;-70
2022/04/03 11:19:21;;;;;;;;;;;;;;;;;;5086243;28;20055;-70
2022/04/03 11:21:50;;;;;;;8.38;4.30;;;;;;;;;;5075722;28;19981;-69
2022/04/03 11:24:21;;;;;;;6.65;4.30;;;;;;;;;;5078035;28;20044;-69
2022/04/03 11:26:50;;;;;;;7.15;4.35;;;;;;;;;;5073556;28;20055;-69
2022/04/03 11:29:19;;;;;;;7.80;4.05;;;;;;;;;;5075870;28;20089;-69
2022/04/03 11:31:49;;;;;;;8.60;3.88;;;;;;;;;;5082064;28;20050;-69
2022/04/03 11:34:18;;;;;;;6.03;4.10;;;;;;;;;;5079751;28;20039;-69
2022/04/03 11:36:47;;;;;;;7.55;4.03;;;;;;;;;;5080121;28;20812;-69
2022/04/03 11:39:21;;;;;;;7.00;3.50;;;;;;;;;;5076188;28;20495;-69
2022/04/03 11:41:55;;;;;;;7.30;3.78;;;;;;;;;;5076092;28;20069;-70
2022/04/03 11:44:24;;;;;;;6.00;3.55;;;;;;;;;;5077841;28;20055;-69
2022/04/03 11:46:54;;;;;;;6.43;3.85;;;;;;;;;;5081988;28;20075;-69
2022/04/03 11:49:25;;;;;;;6.50;3.28;;;;;;;;;;5080980;28;20055;-69
2022/04/03 11:51:55;;;;;;;7.30;3.60;;;;;;;;;;5087475;28;20097;-70
2022/04/03 11:54:25;;;;;;;5.40;3.38;;;;;;;;;;5078368;28;20044;-69
2022/04/03 11:57:01;;;;;;;5.00;3.17;;;;;;;;;;5083446;28;20520;-70
2022/04/03 11:59:33;;;;;;;4.03;3.20;;;;;;;;;;5083895;28;20397;-70
2022/04/03 12:02:10;;;;;;;5.15;2.80;;;;;;;;;;5084749;28;20071;-70
2022/04/03 12:04:40;;;;;;;5.40;2.92;;;;;;;;;;5084748;28;20071;-71
2022/04/03 12:07:13;;;;;;;3.28;2.53;;;;;;;;;;5082263;28;20048;-70
2022/04/03 12:09:43;;;;;;;5.35;2.88;;;;;;;;;;5080898;28;20048;-69
2022/04/03 12:12:13;;;;;;;7.47;2.58;;;;;;;;;;5073280;28;20569;-70
2022/04/03 12:14:45;;;;;;;4.43;2.58;;;;;;;;;;5075384;28;20044;-69
2022/04/03 12:17:15;;;;;;;6.55;2.78;;;;;;;;;;5079096;28;20044;-69
2022/04/03 12:19:47;;;;;;;2.97;2.42;;;;;;;;;;5082614;28;20064;-69
2022/04/03 12:22:18;;;;;;;3.90;2.45;;;;;;;;;;5080783;28;20476;-69
2022/04/03 12:24:48;;;;;;;5.65;3.05;;;;;;;;;;5087053;28;20451;-69
2022/04/03 12:27:22;;;;;;;4.72;2.70;;;;;;;;;;5084137;28;20052;-69
2022/04/03 12:29:52;;;;;;;7.75;3.10;;;;;;;;;;5077071;28;20048;-69
2022/04/03 12:32:32;;;;;;;3.25;2.63;;;;;;;;;;5085921;28;20059;-69
2022/04/03 12:35:01;;;;;;;5.25;3.20;;;;;;;;;;5078917;28;20062;-69
2022/04/03 12:37:33;;;;;;;5.15;2.80;;;;;;;;;;5080726;28;20040;-69
2022/04/03 12:40:06;;;;;;;5.60;2.88;;;;;;;;;;5085581;28;20051;-69
2022/04/03 12:42:37;;;;;;;4.80;2.95;;;;;;;;;;5083278;28;20125;-69
2022/04/03 12:45:08;;;;;;;7.10;2.70;;;;;;;;;;5083358;28;20127;-69
2022/04/03 12:47:38;;;;;;;3.72;2.58;;;;;;;;;;5082977;28;20510;-69
2022/04/03 12:50:14;;;;;;;6.22;2.78;;;;;;;;;;5082262;28;20055;-69
2022/04/03 12:52:47;;;;;;;3.67;2.25;;;;;;;;;;5088394;28;20141;-69
2022/04/03 12:55:33;;;;;;;2.38;2.17;;;;;;;;;;5087178;28;20054;-69
2022/04/03 12:58:28;;;;;;;3.83;2.40;;;;;;;;;;5082312;28;20048;-69
2022/04/03 13:01:00;;;;;;;5.53;3.10;;;;;;;;;;5090546;28;20050;-69
2022/04/03 13:03:33;;;;;;;5.88;3.45;;;;;;;;;;5079748;28;20061;-69
2022/04/03 13:06:05;;;;;;;5.47;2.58;;;;;;;;;;5088666;28;20135;-68
2022/04/03 13:08:41;;;;;;;4.88;3.00;;;;;;;;;;5085266;28;20048;-68
2022/04/03 13:11:10;;;;;;;4.22;2.40;;;;;;;;;;5088134;28;20048;-68
2022/04/03 13:13:41;;;;;;;7.68;2.78;;;;;;;;;;5084873;28;20051;-68
2022/04/03 13:16:09;;;;;;;9.23;4.03;;;;;;;;;;5091443;28;20048;-68
2022/04/03 13:18:38;;;;;;;8.95;3.17;;;;;;;;;;5088367;28;20392;-68
2022/04/03 13:21:07;;;;;;;5.82;2.92;;;;;;;;;;5087987;28;20048;-68
2022/04/03 13:23:36;;;;;;;7.15;3.00;;;;;;;;;;5085471;28;20044;-68
2022/04/03 13:26:08;;;;;;;5.47;3.30;;;;;;;;;;5083554;28;20048;-68
2022/04/03 13:28:37;;;;;;;5.85;3.58;;;;;;;;;;5085396;28;20054;-68
2022/04/03 13:31:07;;;;;;;4.88;3.17;;;;;;;;;;5088950;28;20479;-68
2022/04/03 13:33:36;;;;;;;7.93;3.17;;;;;;;;;;5090949;28;20091;-68
2022/04/03 13:36:08;;;;;;;4.50;2.92;;;;;;;;;;5090320;28;20064;-68
2022/04/03 13:38:37;;;;;;;7.32;2.97;;;;;;;;;;5088872;28;20040;-68
2022/04/03 13:41:06;;;;;;;4.05;2.58;;;;;;;;;;5087083;28;20048;-68
2022/04/03 13:43:35;;;;;;;4.47;2.80;;;;;;;;;;5090386;28;20040;-68
2022/04/03 13:46:06;;;;;;;9.60;2.92;;;;;;;;;;5090051;28;20044;-68
2022/04/03 13:48:38;;;;;;;4.93;2.40;;;;;;;;;;5084601;28;20430;-68
2022/04/03 13:51:07;;;;;;;5.80;2.47;;;;;;;;;;5085381;28;20051;-68
2022/04/03 13:53:36;;;;;;;7.03;3.00;;;;;;;;;;5089795;28;20048;-68
2022/04/03 13:56:06;;;;;;;3.95;2.40;;;;;;;;;;5089369;28;20052;-68
2022/04/03 13:58:35;;;;;;;4.28;2.80;;;;;;;;;;5081821;28;20040;-68
2022/04/03 14:01:08;;;;;;;3.05;2.15;;;;;;;;;;5086606;28;20075;-68
2022/04/03 14:03:39;;;;;;;4.03;2.60;;;;;;;;;;5091813;28;20052;-68
2022/04/03 14:06:08;;;;;;;11.00;3.33;;;;;;;;;;5088299;28;20052;-68
2022/04/03 14:08:37;;;;;;;4.82;2.80;;;;;;;;;;5085186;28;20040;-69
2022/04/03 14:11:06;;;;;;;4.07;2.85;;;;;;;;;;5090331;28;20044;-68
2022/04/03 14:13:34;;;;;;;5.65;2.97;;;;;;;;;;5089207;28;20040;-68
2022/04/03 14:16:07;;;;;;;3.95;2.58;;;;;;;;;;5090990;28;20051;-68
2022/04/03 14:18:36;;;;;;;3.65;2.58;;;;;;;;;;5090542;28;20075;-68
2022/04/03 14:21:09;;;;;;;6.10;2.53;;;;;;;;;;5082861;28;20093;-68
2022/04/03 14:23:38;;;;;;;6.13;2.60;;;;;;;;;;5089065;28;20660;-68
2022/04/03 14:26:08;;;;;;;4.95;2.85;;;;;;;;;;5087419;28;20108;-69
2022/04/03 14:28:39;;;;;;;9.02;3.22;;;;;;;;;;5090263;28;20047;-68
2022/04/03 14:31:08;;;;;;;6.50;3.05;;;;;;;;;;5084719;28;20469;-68
2022/04/03 14:33:37;;;;;;;6.55;3.20;;;;;;;;;;5086982;28;20570;-68
2022/04/03 14:36:07;;;;;;;3.72;2.80;;;;;;;;;;5082046;28;20555;-68
2022/04/03 14:38:38;;;;;;;6.43;3.30;;;;;;;;;;5088055;28;20388;-68
2022/04/03 14:41:07;;;;;;;3.70;2.58;;;;;;;;;;5089033;28;20067;-68
2022/04/03 14:43:36;;;;;;;6.80;2.97;;;;;;;;;;5088704;28;20081;-68
2022/04/03 14:46:08;;;;;;;5.95;2.92;;;;;;;;;;5090426;28;20410;-68
2022/04/03 14:48:38;;;;;;;3.97;2.55;;;;;;;;;;5083660;28;20055;-68
2022/04/03 14:51:07;;;;;;;4.88;2.85;;;;;;;;;;5090863;28;20051;-68
2022/04/03 14:53:37;;;;;;;9.82;2.80;;;;;;;;;;5089076;28;20052;-68
2022/04/03 14:56:06;;;;;;;5.10;2.45;;;;;;;;;;5083117;28;20059;-68